DLH12S EDDS-EDDF
Flight info
| Callsign | DLH12S |
|---|---|
| Flight time | 0h 26m |
| Altitude | 22000 |
| Route | ETASA4B/25 ETASA T163 SPESA SPESA5B |
| Aircraft | A320/M-SDE3FGHIRWY/LB1 |
Departure
| Time | 2026-05-05 18:24 |
|---|---|
| Airport | Stuttgart Airport (EDDS) |
Arrival
| Time | 2026-05-05 18:51 |
|---|---|
| Airport | Frankfurt Main Airport (EDDF) |
| Time | Latitude | Longitude | Altitude | Speed | Heading |
|---|---|---|---|---|---|
| 2026-05-05 17:52 | 48.68870 | 9.19288 | 1295 ft | 0 kts | 343° |
| 2026-05-05 18:09 | 48.68865 | 9.19290 | 1295 ft | 4 kts | 343° |
| 2026-05-05 18:09 | 48.68841 | 9.19300 | 1295 ft | 4 kts | 344° |
| 2026-05-05 18:09 | 48.68821 | 9.19309 | 1295 ft | 4 kts | 351° |
| 2026-05-05 18:10 | 48.68800 | 9.19307 | 1295 ft | 4 kts | 40° |
| 2026-05-05 18:10 | 48.68787 | 9.19279 | 1295 ft | 2 kts | 73° |
| 2026-05-05 18:10 | 48.68787 | 9.19277 | 1295 ft | 0 kts | 74° |
| 2026-05-05 18:13 | 48.68789 | 9.19291 | 1295 ft | 5 kts | 74° |
| 2026-05-05 18:13 | 48.68805 | 9.19371 | 1295 ft | 8 kts | 74° |
| 2026-05-05 18:14 | 48.68820 | 9.19450 | 1295 ft | 8 kts | 74° |
| 2026-05-05 18:14 | 48.68840 | 9.19558 | 1295 ft | 13 kts | 74° |
| 2026-05-05 18:14 | 48.68865 | 9.19694 | 1295 ft | 14 kts | 74° |
| 2026-05-05 18:14 | 48.68891 | 9.19854 | 1293 ft | 17 kts | 95° |
| 2026-05-05 18:15 | 48.68819 | 9.19964 | 1291 ft | 16 kts | 85° |
| 2026-05-05 18:15 | 48.68860 | 9.20137 | 1287 ft | 19 kts | 73° |
| 2026-05-05 18:15 | 48.68896 | 9.20335 | 1283 ft | 19 kts | 74° |
| 2026-05-05 18:15 | 48.68936 | 9.20542 | 1280 ft | 22 kts | 74° |
| 2026-05-05 18:16 | 48.68981 | 9.20782 | 1273 ft | 26 kts | 73° |
| 2026-05-05 18:16 | 48.69035 | 9.21067 | 1274 ft | 30 kts | 73° |
| 2026-05-05 18:16 | 48.69093 | 9.21375 | 1264 ft | 27 kts | 74° |
| 2026-05-05 18:16 | 48.69144 | 9.21637 | 1254 ft | 26 kts | 73° |
| 2026-05-05 18:17 | 48.69196 | 9.21917 | 1256 ft | 29 kts | 72° |
| 2026-05-05 18:17 | 48.69250 | 9.22198 | 1253 ft | 29 kts | 74° |
| 2026-05-05 18:17 | 48.69309 | 9.22509 | 1232 ft | 32 kts | 74° |
| 2026-05-05 18:17 | 48.69371 | 9.22842 | 1224 ft | 28 kts | 74° |
| 2026-05-05 18:18 | 48.69429 | 9.23144 | 1218 ft | 32 kts | 74° |
| 2026-05-05 18:18 | 48.69487 | 9.23448 | 1210 ft | 31 kts | 74° |
| 2026-05-05 18:18 | 48.69546 | 9.23763 | 1203 ft | 27 kts | 74° |
| 2026-05-05 18:18 | 48.69598 | 9.24038 | 1197 ft | 18 kts | 73° |
| 2026-05-05 18:19 | 48.69591 | 9.24208 | 1193 ft | 17 kts | 121° |
| 2026-05-05 18:19 | 48.69553 | 9.24289 | 1192 ft | 0 kts | 148° |
| 2026-05-05 18:20 | 48.69552 | 9.24290 | 1192 ft | 2 kts | 148° |
| 2026-05-05 18:20 | 48.69496 | 9.24320 | 1191 ft | 10 kts | 165° |
| 2026-05-05 18:20 | 48.69492 | 9.24321 | 1191 ft | 0 kts | 165° |
| 2026-05-05 18:22 | 48.69491 | 9.24321 | 1191 ft | 2 kts | 165° |
| 2026-05-05 18:22 | 48.69427 | 9.24337 | 1190 ft | 17 kts | 181° |
| 2026-05-05 18:23 | 48.69378 | 9.24255 | 1192 ft | 0 kts | 252° |
| 2026-05-05 18:23 | 48.69375 | 9.24237 | 1192 ft | 12 kts | 253° |
| 2026-05-05 18:24 | 48.69273 | 9.23704 | 1203 ft | 90 kts | 254° |
| 2026-05-05 18:24 | 48.69042 | 9.22494 | 1232 ft | 147 kts | 253° |
| 2026-05-05 18:24 | 48.68714 | 9.20802 | 1416 ft | 181 kts | 253° |
| 2026-05-05 18:24 | 48.68368 | 9.18920 | 2103 ft | 184 kts | 253° |
| 2026-05-05 18:25 | 48.68010 | 9.17061 | 2841 ft | 189 kts | 252° |
| 2026-05-05 18:25 | 48.67752 | 9.15737 | 3119 ft | 206 kts | 252° |
| 2026-05-05 18:25 | 48.67172 | 9.12788 | 4026 ft | 225 kts | 253° |
| 2026-05-05 18:25 | 48.67053 | 9.10438 | 5026 ft | 231 kts | 281° |
| 2026-05-05 18:26 | 48.67834 | 9.08199 | 5729 ft | 256 kts | 307° |
| 2026-05-05 18:26 | 48.69373 | 9.06687 | 6507 ft | 278 kts | 339° |
| 2026-05-05 18:26 | 48.71355 | 9.06491 | 7371 ft | 292 kts | 358° |
| 2026-05-05 18:26 | 48.73383 | 9.06707 | 8311 ft | 296 kts | 1° |
| 2026-05-05 18:27 | 48.75460 | 9.07008 | 9232 ft | 301 kts | 2° |
| 2026-05-05 18:27 | 48.77562 | 9.07332 | 10076 ft | 308 kts | 2° |
| 2026-05-05 18:27 | 48.79776 | 9.07662 | 10425 ft | 332 kts | 2° |
| 2026-05-05 18:27 | 48.82159 | 9.07996 | 10713 ft | 355 kts | 2° |
| 2026-05-05 18:28 | 48.87231 | 9.08665 | 12010 ft | 372 kts | 2° |
| 2026-05-05 18:28 | 48.89823 | 9.08998 | 12799 ft | 376 kts | 2° |
| 2026-05-05 18:28 | 48.92451 | 9.09339 | 13581 ft | 380 kts | 2° |
| 2026-05-05 18:29 | 48.95103 | 9.09686 | 14277 ft | 384 kts | 2° |
| 2026-05-05 18:29 | 48.97780 | 9.10038 | 14970 ft | 388 kts | 3° |
| 2026-05-05 18:29 | 49.00453 | 9.10390 | 15647 ft | 392 kts | 3° |
| 2026-05-05 18:29 | 49.03181 | 9.10750 | 16322 ft | 395 kts | 3° |
| 2026-05-05 18:30 | 49.05933 | 9.11110 | 16984 ft | 399 kts | 4° |
| 2026-05-05 18:30 | 49.08718 | 9.11475 | 17601 ft | 403 kts | 4° |
| 2026-05-05 18:30 | 49.11516 | 9.11841 | 17799 ft | 405 kts | 4° |
| 2026-05-05 18:30 | 49.14321 | 9.12209 | 17841 ft | 404 kts | 4° |
| 2026-05-05 18:31 | 49.17123 | 9.12576 | 17836 ft | 404 kts | 4° |
| 2026-05-05 18:31 | 49.19923 | 9.12942 | 17826 ft | 404 kts | 4° |
| 2026-05-05 18:31 | 49.22731 | 9.13325 | 17830 ft | 404 kts | 4° |
| 2026-05-05 18:31 | 49.25529 | 9.13725 | 17838 ft | 404 kts | 4° |
| 2026-05-05 18:32 | 49.28333 | 9.14135 | 17840 ft | 404 kts | 4° |
| 2026-05-05 18:32 | 49.31092 | 9.14542 | 17719 ft | 391 kts | 4° |
| 2026-05-05 18:32 | 49.33769 | 9.14935 | 17182 ft | 380 kts | 4° |
| 2026-05-05 18:32 | 49.36352 | 9.15312 | 16659 ft | 366 kts | 4° |
| 2026-05-05 18:33 | 49.38857 | 9.15673 | 16150 ft | 359 kts | 4° |
| 2026-05-05 18:33 | 49.41333 | 9.16025 | 15643 ft | 355 kts | 3° |
| 2026-05-05 18:33 | 49.43786 | 9.16373 | 15146 ft | 352 kts | 3° |
| 2026-05-05 18:33 | 49.46220 | 9.16715 | 14657 ft | 350 kts | 3° |
| 2026-05-05 18:34 | 49.48634 | 9.17058 | 14177 ft | 346 kts | 3° |
| 2026-05-05 18:34 | 49.51019 | 9.17401 | 13704 ft | 343 kts | 3° |
| 2026-05-05 18:34 | 49.53389 | 9.17745 | 13168 ft | 341 kts | 3° |
| 2026-05-05 18:34 | 49.55751 | 9.18085 | 12655 ft | 341 kts | 3° |
| 2026-05-05 18:35 | 49.58090 | 9.18570 | 12285 ft | 339 kts | 14° |
| 2026-05-05 18:35 | 49.60168 | 9.20130 | 11888 ft | 339 kts | 37° |
| 2026-05-05 18:35 | 49.61914 | 9.22560 | 11503 ft | 337 kts | 43° |
| 2026-05-05 18:35 | 49.63584 | 9.25081 | 11080 ft | 336 kts | 44° |
| 2026-05-05 18:36 | 49.65245 | 9.27601 | 10697 ft | 333 kts | 44° |
| 2026-05-05 18:36 | 49.66893 | 9.30103 | 10300 ft | 332 kts | 44° |
| 2026-05-05 18:36 | 49.68537 | 9.32596 | 9929 ft | 330 kts | 44° |
| 2026-05-05 18:36 | 49.70173 | 9.35073 | 9820 ft | 330 kts | 44° |
| 2026-05-05 18:37 | 49.71813 | 9.37554 | 9836 ft | 330 kts | 44° |
| 2026-05-05 18:37 | 49.73458 | 9.40042 | 9837 ft | 331 kts | 44° |
| 2026-05-05 18:37 | 49.75102 | 9.42535 | 9838 ft | 331 kts | 44° |
| 2026-05-05 18:37 | 49.76726 | 9.44996 | 9834 ft | 331 kts | 44° |
| 2026-05-05 18:38 | 49.78368 | 9.47491 | 9833 ft | 331 kts | 44° |
| 2026-05-05 18:38 | 49.80011 | 9.49985 | 9833 ft | 331 kts | 44° |
| 2026-05-05 18:38 | 49.81868 | 9.52124 | 9832 ft | 328 kts | 24° |
| 2026-05-05 18:38 | 49.84020 | 9.52964 | 9832 ft | 323 kts | 360° |
| 2026-05-05 18:39 | 49.86206 | 9.52412 | 9832 ft | 318 kts | 335° |
| 2026-05-05 18:39 | 49.88041 | 9.50606 | 9811 ft | 312 kts | 316° |
| 2026-05-05 18:39 | 49.89648 | 9.48369 | 9367 ft | 309 kts | 314° |
| 2026-05-05 18:39 | 49.91216 | 9.46106 | 8908 ft | 307 kts | 314° |
| 2026-05-05 18:40 | 49.92773 | 9.43846 | 8476 ft | 305 kts | 314° |
| 2026-05-05 18:40 | 49.94242 | 9.41504 | 8048 ft | 301 kts | 306° |
| 2026-05-05 18:40 | 49.95515 | 9.38943 | 7612 ft | 298 kts | 304° |
| 2026-05-05 18:40 | 49.96748 | 9.36374 | 7179 ft | 296 kts | 304° |
| 2026-05-05 18:41 | 49.97970 | 9.33813 | 6855 ft | 293 kts | 304° |
| 2026-05-05 18:41 | 49.99178 | 9.31275 | 6826 ft | 287 kts | 304° |
| 2026-05-05 18:41 | 49.99966 | 9.29624 | 6829 ft | 277 kts | 304° |
| 2026-05-05 18:41 | 50.01107 | 9.27234 | 6831 ft | 274 kts | 304° |
| 2026-05-05 18:42 | 50.02241 | 9.24859 | 6832 ft | 273 kts | 304° |
| 2026-05-05 18:42 | 50.03367 | 9.22492 | 6610 ft | 270 kts | 302° |
| 2026-05-05 18:42 | 50.04282 | 9.20005 | 6195 ft | 267 kts | 295° |
| 2026-05-05 18:42 | 50.05123 | 9.17400 | 5758 ft | 266 kts | 294° |
| 2026-05-05 18:43 | 50.05933 | 9.14861 | 5382 ft | 264 kts | 294° |
| 2026-05-05 18:43 | 50.06727 | 9.12381 | 5253 ft | 246 kts | 294° |
| 2026-05-05 18:43 | 50.07479 | 9.10045 | 4914 ft | 234 kts | 294° |
| 2026-05-05 18:43 | 50.08101 | 9.07777 | 4462 ft | 228 kts | 286° |
| 2026-05-05 18:44 | 50.08572 | 9.05431 | 4051 ft | 225 kts | 284° |
| 2026-05-05 18:44 | 50.09011 | 9.03078 | 4018 ft | 227 kts | 284° |
| 2026-05-05 18:44 | 50.09448 | 9.00711 | 4020 ft | 227 kts | 284° |
| 2026-05-05 18:44 | 50.09884 | 8.98348 | 4019 ft | 227 kts | 284° |
| 2026-05-05 18:45 | 50.10318 | 8.95980 | 4015 ft | 227 kts | 284° |
| 2026-05-05 18:45 | 50.10755 | 8.93615 | 4017 ft | 227 kts | 284° |
| 2026-05-05 18:45 | 50.11166 | 8.91310 | 4010 ft | 214 kts | 279° |
| 2026-05-05 18:45 | 50.11162 | 8.89086 | 4008 ft | 198 kts | 256° |
| 2026-05-05 18:46 | 50.10737 | 8.87131 | 4008 ft | 185 kts | 249° |
| 2026-05-05 18:46 | 50.10304 | 8.85285 | 3885 ft | 180 kts | 249° |
| 2026-05-05 18:46 | 50.09877 | 8.83462 | 3693 ft | 179 kts | 249° |
| 2026-05-05 18:46 | 50.09456 | 8.81676 | 3490 ft | 173 kts | 250° |
| 2026-05-05 18:47 | 50.09045 | 8.79930 | 3247 ft | 170 kts | 250° |
| 2026-05-05 18:47 | 50.08638 | 8.78204 | 3019 ft | 170 kts | 250° |
| 2026-05-05 18:47 | 50.08232 | 8.76485 | 2788 ft | 169 kts | 250° |
| 2026-05-05 18:47 | 50.07826 | 8.74769 | 2556 ft | 168 kts | 250° |
| 2026-05-05 18:48 | 50.07424 | 8.73068 | 2353 ft | 167 kts | 250° |
| 2026-05-05 18:48 | 50.07037 | 8.71436 | 2098 ft | 152 kts | 250° |
| 2026-05-05 18:48 | 50.06683 | 8.69952 | 1852 ft | 139 kts | 249° |
| 2026-05-05 18:48 | 50.06344 | 8.68566 | 1705 ft | 134 kts | 249° |
| 2026-05-05 18:49 | 50.06020 | 8.67214 | 1529 ft | 133 kts | 250° |
| 2026-05-05 18:49 | 50.05708 | 8.65862 | 1336 ft | 132 kts | 250° |
| 2026-05-05 18:49 | 50.05394 | 8.64511 | 1172 ft | 133 kts | 249° |
| 2026-05-05 18:49 | 50.05060 | 8.63164 | 1011 ft | 134 kts | 249° |
| 2026-05-05 18:50 | 50.04744 | 8.61824 | 810 ft | 134 kts | 250° |
| 2026-05-05 18:50 | 50.04436 | 8.60457 | 658 ft | 134 kts | 250° |
| 2026-05-05 18:50 | 50.04114 | 8.59117 | 456 ft | 133 kts | 249° |
| 2026-05-05 18:50 | 50.03804 | 8.57839 | 365 ft | 116 kts | 249° |
| 2026-05-05 18:51 | 50.03629 | 8.57092 | 359 ft | 45 kts | 250° |
| 2026-05-05 18:51 | 50.03529 | 8.56660 | 356 ft | 40 kts | 250° |
| 2026-05-05 18:51 | 50.03447 | 8.56287 | 360 ft | 34 kts | 258° |
| 2026-05-05 18:51 | 50.03448 | 8.55953 | 350 ft | 25 kts | 278° |
| 2026-05-05 18:52 | 50.03464 | 8.55807 | 352 ft | 0 kts | 280° |
| 2026-05-05 18:52 | 50.03470 | 8.55751 | 344 ft | 9 kts | 280° |
| 2026-05-05 18:52 | 50.03484 | 8.55626 | 347 ft | 15 kts | 279° |
| 2026-05-05 18:53 | 50.03486 | 8.55446 | 352 ft | 18 kts | 253° |
| 2026-05-05 18:53 | 50.03438 | 8.55245 | 348 ft | 21 kts | 249° |
| 2026-05-05 18:53 | 50.03383 | 8.55017 | 348 ft | 24 kts | 249° |
| 2026-05-05 18:53 | 50.03320 | 8.54758 | 339 ft | 26 kts | 249° |
| 2026-05-05 18:54 | 50.03279 | 8.54515 | 335 ft | 17 kts | 294° |
| 2026-05-05 18:54 | 50.03345 | 8.54466 | 337 ft | 9 kts | 339° |
| 2026-05-05 18:54 | 50.03403 | 8.54432 | 339 ft | 12 kts | 339° |
| 2026-05-05 18:54 | 50.03513 | 8.54364 | 345 ft | 22 kts | 338° |
| 2026-05-05 18:55 | 50.03650 | 8.54307 | 342 ft | 4 kts | 23° |
| 2026-05-05 18:55 | 50.03669 | 8.54361 | 348 ft | 10 kts | 67° |
| 2026-05-05 18:55 | 50.03706 | 8.54515 | 347 ft | 17 kts | 70° |
| 2026-05-05 18:55 | 50.03746 | 8.54681 | 355 ft | 16 kts | 69° |
| 2026-05-05 18:56 | 50.03783 | 8.54836 | 354 ft | 15 kts | 69° |
| 2026-05-05 18:56 | 50.03821 | 8.54995 | 354 ft | 15 kts | 70° |
| 2026-05-05 18:56 | 50.03856 | 8.55144 | 357 ft | 14 kts | 69° |
| 2026-05-05 18:56 | 50.03888 | 8.55277 | 354 ft | 12 kts | 69° |
| 2026-05-05 18:57 | 50.03905 | 8.55348 | 349 ft | 0 kts | 70° |
| 2026-05-05 18:58 | 50.03910 | 8.55371 | 359 ft | 6 kts | 70° |
| 2026-05-05 18:59 | 50.03932 | 8.55464 | 353 ft | 10 kts | 70° |
| 2026-05-05 18:59 | 50.03959 | 8.55577 | 352 ft | 15 kts | 70° |
| 2026-05-05 18:59 | 50.04000 | 8.55752 | 355 ft | 18 kts | 70° |
| 2026-05-05 18:59 | 50.04047 | 8.55944 | 355 ft | 20 kts | 69° |
| 2026-05-05 19:00 | 50.04097 | 8.56152 | 360 ft | 21 kts | 70° |
| 2026-05-05 19:00 | 50.04154 | 8.56290 | 358 ft | 8 kts | 2° |
| 2026-05-05 19:00 | 50.04232 | 8.56243 | 359 ft | 14 kts | 338° |
| 2026-05-05 19:00 | 50.04287 | 8.56156 | 358 ft | 11 kts | 269° |
| 2026-05-05 19:01 | 50.04332 | 8.56061 | 358 ft | 13 kts | 338° |
| 2026-05-05 19:01 | 50.04418 | 8.56033 | 359 ft | 12 kts | 18° |
| 2026-05-05 19:01 | 50.04457 | 8.56135 | 361 ft | 12 kts | 70° |
| 2026-05-05 19:01 | 50.04493 | 8.56283 | 359 ft | 16 kts | 70° |
| 2026-05-05 19:02 | 50.04547 | 8.56439 | 361 ft | 17 kts | 30° |
| 2026-05-05 19:02 | 50.04654 | 8.56512 | 364 ft | 13 kts | 24° |
| 2026-05-05 19:02 | 50.04666 | 8.56568 | 358 ft | 4 kts | 117° |
| 2026-05-05 19:02 | 50.04652 | 8.56613 | 360 ft | 7 kts | 114° |
| 2026-05-05 19:03 | 50.04637 | 8.56664 | 363 ft | 0 kts | 115° |
| 2026-05-05 19:03 | 50.04637 | 8.56665 | 362 ft | 0 kts | 115° |